Time;durP1;ratioP1;P1;durP2;ratioP2;P2;SDS_P1;SDS_P2;PMS_P1;PMS_P2;Temp;Humidity;BMP_temperature;BMP_pressure;BME280_temperature;BME280_humidity;BME280_pressure;Samples;Min_cycle;Max_cycle;Signal;HPM_P1;HPM_P2
2023/05/29 00:00:07;;;;;;;26.27;4.97;;;;;;;-144.73;76.54;54231.19;5102310;28;20044;-71
2023/05/29 00:02:36;;;;;;;29.92;4.32;;;;;;;-144.73;76.58;54202.44;5112716;28;20402;-71
2023/05/29 00:05:05;;;;;;;19.65;3.90;;;;;;;-144.73;77.49;54243.50;5100741;28;20077;-71
2023/05/29 00:07:32;;;;;;;21.40;3.92;;;;;;;-144.73;76.95;54243.50;5103162;28;20055;-71
2023/05/29 00:09:58;;;;;;;24.83;4.28;;;;;;;-144.73;76.81;54194.25;5107383;27;20019;-71
2023/05/29 00:12:24;;;;;;;20.30;3.80;;;;;;;-144.73;77.25;54276.34;5101358;28;20016;-70
2023/05/29 00:14:49;;;;;;;29.92;4.30;;;;;;;-144.73;78.09;54278.41;5102859;28;20095;-69
2023/05/29 00:17:15;;;;;;;25.77;4.35;;;;;;;-144.73;78.54;54220.94;5110920;28;20011;-70
2023/05/29 00:19:42;;;;;;;25.10;3.63;;;;;;;-144.73;78.61;54235.28;5112589;28;20019;-70
2023/05/29 00:22:07;;;;;;;20.92;4.13;;;;;;;-144.73;78.96;54218.88;5107521;28;20034;-70
2023/05/29 00:24:32;;;;;;;19.63;3.90;;;;;;;-144.73;78.68;54243.50;5104601;28;20088;-70
2023/05/29 00:26:58;;;;;;;17.90;3.65;;;;;;;-144.73;79.55;54264.03;5097851;28;20075;-70
2023/05/29 00:29:23;;;;;;;25.77;3.83;;;;;;;-144.73;79.91;54227.09;5106420;28;20061;-70
2023/05/29 00:31:49;;;;;;;29.35;4.95;;;;;;;-144.73;81.22;54237.34;5097546;28;20050;-70
2023/05/29 00:34:14;;;;;;;24.23;4.38;;;;;;;-144.73;81.84;54218.88;5103057;28;20020;-70
2023/05/29 00:36:40;;;;;;;29.02;4.75;;;;;;;-144.73;81.64;54227.09;5098044;28;20033;-70
2023/05/29 00:39:05;;;;;;;33.90;6.75;;;;;;;-144.73;82.80;54251.72;5101090;28;20513;-70
2023/05/29 00:41:31;;;;;;;26.40;5.32;;;;;;;-144.73;83.68;54222.97;5094664;28;20032;-70
2023/05/29 00:43:56;;;;;;;22.48;4.25;;;;;;;-144.73;84.87;54218.88;5096008;28;20031;-71
2023/05/29 00:46:21;;;;;;;29.27;4.03;;;;;;;-144.73;85.88;54247.59;5096221;28;20035;-70
2023/05/29 00:48:47;;;;;;;21.95;3.92;;;;;;;-144.73;85.93;54251.72;5096559;28;20027;-70
2023/05/29 00:51:13;;;;;;;31.38;4.72;;;;;;;-144.73;87.14;54198.34;5100588;28;20036;-70
2023/05/29 00:53:42;;;;;;;34.63;5.25;;;;;;;-144.73;87.52;54227.09;5091908;28;20063;-70
2023/05/29 00:56:08;;;;;;;38.38;4.72;;;;;;;-144.73;88.01;54190.13;5103841;28;20035;-69
2023/05/29 00:58:34;;;;;;;27.75;5.40;;;;;;;-144.73;87.48;54243.50;5098162;28;20024;-70
2023/05/29 01:01:00;;;;;;;25.05;4.10;;;;;;;-144.73;88.29;54239.41;5097001;28;20038;-70
2023/05/29 01:03:26;;;;;;;41.38;4.40;;;;;;;-144.73;88.74;54165.50;5106254;28;20046;-70
2023/05/29 01:05:52;;;;;;;28.88;4.55;;;;;;;-144.73;88.29;54235.28;5094885;28;20433;-70
2023/05/29 01:08:18;;;;;;;27.42;4.75;;;;;;;-144.73;89.03;54243.50;5102641;28;20023;-70
2023/05/29 01:10:43;;;;;;;26.13;4.57;;;;;;;-144.73;89.14;54239.41;5105654;28;20052;-70
2023/05/29 01:13:19;;;;;;;23.73;4.72;;;;;;;-144.73;89.10;54235.28;5109757;28;20089;-70
2023/05/29 01:16:06;;;;;;;18.90;3.90;;;;;;;-144.73;90.67;54227.09;5104191;28;20043;-70
2023/05/29 01:19:22;;;;;;;30.10;4.32;;;;;;;-144.73;91.71;54206.56;5111152;28;20043;-70
2023/05/29 01:22:14;;;;;;;36.08;4.85;;;;;;;-144.73;92.13;54231.19;5018392;28;20038;-70
2023/05/29 01:24:54;;;;;;;27.40;4.20;;;;;;;-144.73;91.96;54231.19;5105995;28;20034;-70
2023/05/29 01:27:21;;;;;;;29.98;4.03;;;;;;;-144.73;93.33;54259.91;5116850;27;20043;-71
2023/05/29 01:29:47;;;;;;;31.67;4.38;;;;;;;-144.73;91.85;54227.09;5103934;28;20016;-71
2023/05/29 01:32:12;;;;;;;29.38;4.85;;;;;;;-144.73;91.85;54227.09;5101628;28;20083;-71
2023/05/29 01:34:38;;;;;;;23.65;4.57;;;;;;;-144.73;92.07;54210.66;5096122;28;20089;-71
2023/05/29 01:37:03;;;;;;;21.25;3.75;;;;;;;-144.73;93.40;54259.91;5095546;28;20085;-71
2023/05/29 01:39:30;;;;;;;29.83;4.70;;;;;;;-144.73;93.36;54181.94;5095453;28;20471;-71
2023/05/29 01:41:56;;;;;;;28.27;3.95;;;;;;;-144.73;93.44;54257.88;5103371;28;20081;-71
2023/05/29 01:44:23;;;;;;;35.50;4.97;;;;;;;-144.73;93.32;54222.97;5107501;28;20011;-71
2023/05/29 01:46:49;;;;;;;26.45;5.05;;;;;;;-144.73;94.26;54235.28;5112038;28;20036;-71
2023/05/29 01:49:16;;;;;;;23.52;4.45;;;;;;;-144.73;93.72;54247.59;5105130;28;20039;-71
2023/05/29 01:51:42;;;;;;;23.85;3.85;;;;;;;-144.73;94.30;54247.59;5104941;28;20053;-71
2023/05/29 01:54:07;;;;;;;25.13;4.38;;;;;;;-144.73;94.34;54202.44;5097796;28;20142;-71
2023/05/29 01:56:33;;;;;;;18.83;4.03;;;;;;;-144.73;94.27;54264.03;5096815;28;20028;-71
2023/05/29 01:59:01;;;;;;;32.50;4.13;;;;;;;-144.73;94.97;54276.34;5105988;28;20078;-71
2023/05/29 02:01:27;;;;;;;33.85;4.63;;;;;;;-144.73;94.94;54206.56;5109092;28;20118;-71
2023/05/29 02:03:52;;;;;;;30.98;5.40;;;;;;;-144.73;95.59;54214.78;5099257;28;20058;-70
2023/05/29 02:06:18;;;;;;;29.05;4.13;;;;;;;-144.73;97.01;54276.34;5092429;28;20033;-71
2023/05/29 02:08:43;;;;;;;25.45;3.75;;;;;;;-144.73;96.75;54233.25;5098886;28;20058;-70
2023/05/29 02:11:09;;;;;;;30.20;4.22;;;;;;;-144.73;96.50;54198.34;5100961;28;20031;-70
2023/05/29 02:13:34;;;;;;;19.88;3.63;;;;;;;-144.73;95.84;54222.97;5088577;28;20046;-71
2023/05/29 02:15:59;;;;;;;23.55;4.57;;;;;;;-144.73;97.15;54220.94;5087584;28;20078;-71
2023/05/29 02:18:25;;;;;;;35.30;4.40;;;;;;;-144.73;97.00;54225.03;5088594;28;20023;-70
2023/05/29 02:20:50;;;;;;;44.05;4.63;;;;;;;-144.73;97.13;54276.34;5087521;28;20036;-70
2023/05/29 02:23:16;;;;;;;39.85;5.60;;;;;;;-144.73;97.28;54288.66;5092819;28;20023;-70
2023/05/29 02:25:41;;;;;;;27.40;4.60;;;;;;;-144.73;97.43;54235.28;5099461;28;20035;-70
2023/05/29 02:28:07;;;;;;;37.38;6.35;;;;;;;-144.73;98.12;54342.03;5108303;28;20020;-70
2023/05/29 02:30:33;;;;;;;25.77;4.68;;;;;;;-144.73;97.64;54206.56;5098846;28;20036;-69
2023/05/29 02:32:58;;;;;;;33.15;4.85;;;;;;;-144.73;97.79;54247.59;5099940;28;20023;-69
2023/05/29 02:35:23;;;;;;;28.42;3.92;;;;;;;-144.73;97.67;54239.41;5097597;28;20115;-69
2023/05/29 02:37:49;;;;;;;34.08;6.03;;;;;;;-144.73;98.39;54259.91;5095141;28;20024;-70
2023/05/29 02:40:15;;;;;;;28.10;4.80;;;;;;;-144.73;97.67;54251.72;5105749;28;20049;-70
2023/05/29 02:42:40;;;;;;;36.47;6.40;;;;;;;-144.73;98.35;54257.88;5109252;28;20023;-69
2023/05/29 02:45:06;;;;;;;39.75;5.13;;;;;;;-144.73;97.88;54231.19;5103407;28;20421;-69
2023/05/29 02:47:32;;;;;;;29.85;4.97;;;;;;;-144.73;97.73;54210.66;5106492;28;20027;-69
2023/05/29 02:49:57;;;;;;;32.33;5.07;;;;;;;-144.73;97.34;54243.50;5101356;28;20024;-69
2023/05/29 02:52:22;;;;;;;30.90;4.90;;;;;;;-144.73;97.04;54222.97;5098704;28;20020;-70
2023/05/29 02:54:48;;;;;;;35.53;5.55;;;;;;;-144.73;98.21;54243.50;5092787;28;20540;-70
2023/05/29 02:57:14;;;;;;;32.95;5.10;;;;;;;-144.73;98.44;54206.56;5102388;28;20435;-69
2023/05/29 02:59:39;;;;;;;28.15;5.03;;;;;;;-144.73;99.07;54243.50;5098992;28;20144;-69
2023/05/29 03:02:04;;;;;;;26.75;5.00;;;;;;;-144.73;99.54;54276.34;5106191;28;20035;-69
2023/05/29 03:04:30;;;;;;;29.85;5.57;;;;;;;-144.73;100.00;54218.88;5094091;28;20020;-69
2023/05/29 03:06:55;;;;;;;42.17;5.22;;;;;;;-144.73;100.00;54216.81;5109472;28;20031;-69
2023/05/29 03:09:21;;;;;;;33.80;5.32;;;;;;;-144.73;100.00;54214.78;5093766;28;20027;-69
2023/05/29 03:11:47;;;;;;;34.42;4.40;;;;;;;-144.73;100.00;54231.19;5091367;28;20032;-69
2023/05/29 03:14:13;;;;;;;33.80;5.20;;;;;;;-144.73;100.00;54206.56;5097802;28;20085;-70
2023/05/29 03:16:40;;;;;;;39.28;5.45;;;;;;;-144.73;100.00;54259.91;5098953;28;20036;-69
2023/05/29 03:19:07;;;;;;;31.42;4.20;;;;;;;-144.73;99.82;54288.66;5106070;28;20021;-70
2023/05/29 03:21:33;;;;;;;40.13;5.50;;;;;;;-144.73;99.79;54259.91;5105002;28;20035;-70
2023/05/29 03:23:58;;;;;;;32.83;4.85;;;;;;;-144.73;99.76;54231.19;5098296;28;20031;-70
2023/05/29 03:26:25;;;;;;;42.60;5.38;;;;;;;-144.73;99.18;54214.78;5098793;28;20024;-70
2023/05/29 03:28:51;;;;;;;27.55;4.88;;;;;;;-144.73;99.15;54231.19;5096769;28;20059;-69
2023/05/29 03:31:16;;;;;;;23.75;4.03;;;;;;;-144.73;99.14;54235.28;5103062;28;20070;-70
2023/05/29 03:33:42;;;;;;;26.17;4.88;;;;;;;-144.73;99.66;54255.81;5100352;28;20019;-70
2023/05/29 03:36:07;;;;;;;29.80;4.95;;;;;;;-144.73;98.59;54239.41;5102114;28;20392;-69
2023/05/29 03:38:33;;;;;;;34.60;5.18;;;;;;;-144.73;98.94;54247.59;5100782;28;20026;-70
2023/05/29 03:40:58;;;;;;;27.75;5.78;;;;;;;-144.73;98.58;54222.97;5099831;28;20044;-69
2023/05/29 03:43:24;;;;;;;32.67;5.20;;;;;;;-144.73;98.58;54276.34;5100214;28;20024;-69
2023/05/29 03:45:49;;;;;;;32.45;4.70;;;;;;;-144.73;97.96;54222.97;5098841;28;20035;-69
2023/05/29 03:48:15;;;;;;;43.65;5.25;;;;;;;-144.73;99.15;54255.81;5108105;28;20528;-69
2023/05/29 03:50:40;;;;;;;38.97;5.70;;;;;;;-144.73;99.83;54247.59;5101789;28;20063;-69
2023/05/29 03:53:06;;;;;;;38.53;5.22;;;;;;;-144.73;99.17;54218.88;5097336;28;20360;-70
2023/05/29 03:55:31;;;;;;;30.70;4.60;;;;;;;-144.73;99.12;54257.88;5096501;28;20036;-70
2023/05/29 03:57:56;;;;;;;28.40;5.30;;;;;;;-144.73;98.32;54249.66;5104500;28;20114;-70
2023/05/29 04:00:22;;;;;;;30.45;4.57;;;;;;;-144.73;98.66;54264.03;5098076;28;20084;-69
2023/05/29 04:02:47;;;;;;;35.00;5.30;;;;;;;-144.73;97.71;54251.72;5091211;28;20307;-69
2023/05/29 04:05:12;;;;;;;32.63;5.50;;;;;;;-144.73;98.92;54227.09;5091444;28;20032;-70
2023/05/29 04:07:38;;;;;;;33.97;4.88;;;;;;;-144.73;100.00;54183.97;5090479;28;20482;-69
2023/05/29 04:10:05;;;;;;;49.20;5.65;;;;;;;-144.73;99.76;54210.66;5090752;28;20040;-69
2023/05/29 04:12:31;;;;;;;43.03;5.88;;;;;;;-144.73;100.00;54210.66;5092124;28;20023;-69
2023/05/29 04:14:57;;;;;;;39.95;5.82;;;;;;;-144.73;99.82;54210.66;5089937;28;20031;-69
2023/05/29 04:17:22;;;;;;;27.75;5.22;;;;;;;-144.73;99.20;54222.97;5090682;28;20031;-69
2023/05/29 04:19:47;;;;;;;29.48;5.22;;;;;;;-144.73;99.40;54214.78;5089720;28;20027;-69
2023/05/29 04:22:13;;;;;;;41.30;5.95;;;;;;;-144.73;99.58;54214.78;5110606;28;20039;-69
2023/05/29 04:24:38;;;;;;;40.28;6.07;;;;;;;-144.73;98.67;54239.41;5109220;28;20581;-69
2023/05/29 04:27:04;;;;;;;41.53;5.63;;;;;;;-144.73;99.15;54235.28;5095075;28;20067;-69
2023/05/29 04:29:30;;;;;;;35.55;5.85;;;;;;;-144.73;98.66;54227.09;5103253;28;20024;-69
2023/05/29 04:31:55;;;;;;;40.28;5.43;;;;;;;-144.73;99.09;54210.66;5091257;28;20032;-69
2023/05/29 04:34:21;;;;;;;36.22;5.22;;;;;;;-144.73;98.13;54239.41;5099840;28;20024;-69
2023/05/29 04:36:47;;;;;;;30.05;5.10;;;;;;;-144.73;98.43;54210.66;5101977;28;20127;-69
2023/05/29 04:39:13;;;;;;;30.45;5.03;;;;;;;-144.73;98.48;54245.56;5105048;28;20098;-69
2023/05/29 04:41:43;;;;;;;34.85;5.65;;;;;;;-144.73;98.48;54247.59;5096605;28;20170;-69
2023/05/29 04:44:11;;;;;;;43.58;5.18;;;;;;;-144.73;99.00;54210.66;5090344;28;20028;-69
2023/05/29 04:46:38;;;;;;;33.78;5.72;;;;;;;-144.73;98.39;54225.03;5090765;28;20050;-69
2023/05/29 04:49:04;;;;;;;38.05;5.15;;;;;;;-144.73;99.44;54251.72;5090242;28;20055;-69
2023/05/29 04:51:30;;;;;;;43.22;5.40;;;;;;;-144.73;98.90;54251.72;5092221;28;20039;-69
2023/05/29 04:53:56;;;;;;;37.38;5.38;;;;;;;-144.73;98.24;54241.44;5100251;28;20032;-69
2023/05/29 04:56:22;;;;;;;40.25;5.28;;;;;;;-144.73;97.04;54222.97;5106562;28;20044;-69
2023/05/29 04:58:48;;;;;;;35.22;6.03;;;;;;;-144.73;97.42;54239.41;5096191;28;20035;-69
2023/05/29 05:01:14;;;;;;;46.67;5.93;;;;;;;-144.73;96.56;54218.88;5099705;28;20040;-70
2023/05/29 05:03:43;;;;;;;33.55;5.68;;;;;;;-144.73;97.40;54218.88;5093153;28;20032;-69
2023/05/29 05:06:09;;;;;;;29.20;5.40;;;;;;;-144.73;97.60;54222.97;5088557;28;20030;-69
2023/05/29 05:08:34;;;;;;;39.50;6.45;;;;;;;-144.73;96.55;54229.13;5090806;28;20111;-69
2023/05/29 05:11:00;;;;;;;53.05;6.00;;;;;;;-144.73;96.07;54243.50;5095587;28;20128;-69
2023/05/29 05:13:26;;;;;;;43.70;6.15;;;;;;;-144.73;95.09;54243.50;5098636;28;20531;-69
2023/05/29 05:15:52;;;;;;;38.20;5.10;;;;;;;-144.73;95.34;54210.66;5109037;28;20028;-69
2023/05/29 05:18:17;;;;;;;33.20;4.68;;;;;;;-144.73;94.96;54218.88;5106720;27;20015;-69
2023/05/29 05:20:43;;;;;;;24.35;5.30;;;;;;;-144.73;94.55;54231.19;5099312;28;21127;-69
2023/05/29 05:23:10;;;;;;;32.90;5.30;;;;;;;-144.73;94.51;54247.59;5092000;28;20020;-69
2023/05/29 05:25:38;;;;;;;41.40;6.40;;;;;;;-144.73;95.37;54204.50;5089022;28;20036;-70
2023/05/29 05:28:04;;;;;;;33.00;5.63;;;;;;;-144.73;94.24;54210.66;5089653;28;20077;-70
2023/05/29 05:30:30;;;;;;;37.33;6.57;;;;;;;-144.73;92.98;54235.28;5088790;28;20024;-70
2023/05/29 05:32:55;;;;;;;35.22;5.65;;;;;;;-144.73;92.75;54235.28;5095512;28;20039;-69
2023/05/29 05:35:21;;;;;;;38.20;5.85;;;;;;;-144.73;92.10;54251.72;5093721;28;20028;-70
2023/05/29 05:37:50;;;;;;;31.90;4.93;;;;;;;-144.73;93.04;54210.66;5098564;28;20289;-70
2023/05/29 05:40:15;;;;;;;25.10;5.32;;;;;;;-144.73;92.11;54231.19;5095244;28;20020;-70
2023/05/29 05:42:40;;;;;;;40.22;5.32;;;;;;;-144.73;90.52;54229.13;5095760;28;20355;-70
2023/05/29 05:45:06;;;;;;;33.17;5.57;;;;;;;-144.73;90.48;54222.97;5089493;28;20062;-70
2023/05/29 05:47:32;;;;;;;44.42;5.90;;;;;;;-144.73;91.23;54247.59;5090349;28;20024;-70
2023/05/29 05:49:58;;;;;;;37.05;6.25;;;;;;;-144.73;89.81;54268.13;5101254;28;20023;-70
2023/05/29 05:52:25;;;;;;;35.80;6.65;;;;;;;-144.73;88.90;54227.09;5102937;28;20035;-70
2023/05/29 05:54:51;;;;;;;29.73;5.05;;;;;;;-144.73;88.41;54222.97;5114978;27;20406;-70
2023/05/29 05:57:17;;;;;;;35.47;5.55;;;;;;;-144.73;88.59;54249.66;5095029;28;20027;-70
2023/05/29 05:59:42;;;;;;;35.35;4.95;;;;;;;-144.73;89.01;54235.28;5098792;28;20141;-70
2023/05/29 06:02:08;;;;;;;32.83;5.53;;;;;;;-144.73;88.99;54235.28;5096610;28;20115;-70
2023/05/29 06:04:33;;;;;;;32.97;5.47;;;;;;;-144.73;88.75;54255.81;5085940;28;20047;-69
2023/05/29 06:06:59;;;;;;;34.17;6.35;;;;;;;-144.73;87.43;54243.50;5089205;28;20080;-70
2023/05/29 06:09:25;;;;;;;27.88;5.32;;;;;;;-144.73;87.28;54247.59;5088796;28;20024;-70
2023/05/29 06:11:51;;;;;;;38.05;6.63;;;;;;;-144.73;87.21;54198.34;5088144;28;20506;-70
2023/05/29 06:14:16;;;;;;;31.92;6.03;;;;;;;-144.73;86.76;54276.34;5100272;28;20023;-70
2023/05/29 06:16:42;;;;;;;32.55;5.45;;;;;;;-144.73;87.86;54247.59;5103722;28;20070;-70
2023/05/29 06:19:08;;;;;;;37.10;5.20;;;;;;;-144.73;85.70;54251.72;5102097;28;20069;-70
2023/05/29 06:21:33;;;;;;;34.25;7.72;;;;;;;-144.73;86.38;54253.75;5100635;28;20075;-70
2023/05/29 06:23:59;;;;;;;34.13;6.22;;;;;;;-144.73;85.52;54241.44;5100873;28;20397;-70
2023/05/29 06:26:24;;;;;;;47.35;6.28;;;;;;;-144.73;85.40;54227.09;5104580;28;20563;-69
2023/05/29 06:28:50;;;;;;;30.50;4.93;;;;;;;-144.73;85.09;54214.78;5096602;28;20085;-69
2023/05/29 06:31:15;;;;;;;31.98;5.75;;;;;;;-144.73;85.21;54212.72;5100076;28;20035;-70
2023/05/29 06:33:41;;;;;;;30.10;5.28;;;;;;;-144.73;85.26;54218.88;5106435;28;20084;-70
2023/05/29 06:36:06;;;;;;;43.55;7.00;;;;;;;-144.73;84.92;54247.59;5103081;28;20031;-70
2023/05/29 06:38:32;;;;;;;42.22;6.78;;;;;;;-144.73;83.41;54222.97;5104455;28;20045;-70
2023/05/29 06:40:57;;;;;;;31.30;5.65;;;;;;;-144.73;84.64;54220.94;5112398;27;20032;-71
2023/05/29 06:43:23;;;;;;;33.60;5.88;;;;;;;-144.73;84.79;54235.28;5092338;28;20055;-69
2023/05/29 06:45:48;;;;;;;28.52;5.15;;;;;;;-144.73;81.74;54247.59;5088597;28;20120;-71
2023/05/29 06:48:14;;;;;;;32.47;5.10;;;;;;;-144.73;79.65;54276.34;5091485;28;20020;-70
2023/05/29 06:50:42;;;;;;;30.92;5.53;;;;;;;-144.73;78.83;54239.41;5091564;28;20081;-69
2023/05/29 06:53:07;;;;;;;27.58;6.25;;;;;;;-144.73;79.89;54214.78;5093209;28;20107;-69
2023/05/29 06:55:33;;;;;;;40.88;6.45;;;;;;;-144.73;79.15;54222.97;5091845;28;20040;-69
2023/05/29 06:57:58;;;;;;;30.40;6.00;;;;;;;-144.73;77.56;54169.63;5101596;28;20513;-70
2023/05/29 07:00:24;;;;;;;36.67;6.65;;;;;;;-144.73;77.56;54239.41;5107963;28;20047;-70
2023/05/29 07:02:50;;;;;;;27.88;4.75;;;;;;;-144.73;77.89;54243.50;5107628;28;20027;-69
2023/05/29 07:05:16;;;;;;;29.25;7.10;;;;;;;-144.73;75.88;54231.19;5096631;28;20039;-70
2023/05/29 07:07:41;;;;;;;30.33;6.68;;;;;;;-144.73;75.13;54194.25;5103649;28;20110;-69
2023/05/29 07:10:07;;;;;;;33.33;6.50;;;;;;;-144.73;77.43;54249.66;5096556;28;20035;-69
2023/05/29 07:12:32;;;;;;;39.95;6.38;;;;;;;-144.73;78.12;54190.13;5104280;28;20386;-70
2023/05/29 07:14:57;;;;;;;33.13;5.40;;;;;;;-144.73;78.34;54235.28;5095194;28;20046;-69
2023/05/29 07:17:23;;;;;;;40.95;5.45;;;;;;;-144.73;76.20;54186.03;5096704;28;20016;-69
2023/05/29 07:19:49;;;;;;;36.42;5.65;;;;;;;-144.73;74.55;54220.94;5095774;28;20069;-70
2023/05/29 07:22:15;;;;;;;33.30;4.70;;;;;;;-144.73;73.19;54231.19;5100439;28;20012;-70
2023/05/29 07:24:40;;;;;;;36.05;6.15;;;;;;;-144.73;71.46;54255.81;5098049;28;20020;-69
2023/05/29 07:27:06;;;;;;;28.75;5.90;;;;;;;-144.73;72.65;54181.94;5099230;28;20028;-69
2023/05/29 07:29:32;;;;;;;31.88;5.72;;;;;;;-144.73;69.97;54200.41;5097619;28;20016;-69
2023/05/29 07:31:58;;;;;;;34.92;5.53;;;;;;;-144.73;70.87;54235.28;5098030;28;20103;-70
2023/05/29 07:34:23;;;;;;;36.85;5.38;;;;;;;-144.73;72.15;54181.94;5091809;28;20020;-70
2023/05/29 07:37:02;;;;;;;33.53;5.47;;;;;;;-144.73;71.24;54222.97;5097098;28;20051;-70
2023/05/29 07:39:28;;;;;;;31.92;5.80;;;;;;;-144.73;70.68;54194.25;5092082;28;20051;-70
2023/05/29 07:41:54;;;;;;;37.72;5.82;;;;;;;-144.73;68.76;54218.88;5095072;28;20024;-70
2023/05/29 07:44:19;;;;;;;30.45;7.10;;;;;;;-144.73;66.12;54214.78;5101543;28;20028;-70
2023/05/29 07:46:45;;;;;;;37.63;5.82;;;;;;;-144.73;67.86;54235.28;5102018;28;20084;-70
2023/05/29 07:49:11;;;;;;;37.35;4.95;;;;;;;-144.73;67.68;54227.09;5090625;28;20032;-70
2023/05/29 07:51:36;;;;;;;28.48;5.18;;;;;;;-144.73;69.70;54186.03;5099940;28;20032;-70
2023/05/29 07:54:02;;;;;;;28.92;5.68;;;;;;;-144.73;67.64;54190.13;5094758;28;20028;-70
2023/05/29 07:56:28;;;;;;;31.90;6.57;;;;;;;-144.73;67.08;54186.03;5096465;28;20028;-70
2023/05/29 07:58:54;;;;;;;38.42;5.72;;;;;;;-144.73;65.12;54186.03;5102977;28;20090;-70
2023/05/29 08:01:21;;;;;;;27.45;5.68;;;;;;;-144.73;64.41;54222.97;5105899;28;20040;-70
2023/05/29 08:03:47;;;;;;;26.23;5.07;;;;;;;-144.73;65.98;54218.88;5100681;28;20390;-70
2023/05/29 08:06:12;;;;;;;30.27;6.07;;;;;;;-144.73;64.82;54163.47;5090719;28;20085;-70
2023/05/29 08:08:38;;;;;;;33.47;5.55;;;;;;;-144.73;63.28;54218.88;5098696;28;20024;-70
2023/05/29 08:11:03;;;;;;;33.47;5.30;;;;;;;-144.73;65.92;54227.09;5101135;28;20064;-70
2023/05/29 08:13:30;;;;;;;33.15;5.43;;;;;;;-144.73;61.88;54210.66;5091344;28;20098;-70
2023/05/29 08:15:55;;;;;;;46.30;7.32;;;;;;;-144.73;62.97;54169.63;5091594;28;20071;-70
2023/05/29 08:18:25;;;;;;;24.88;4.80;;;;;;;-144.73;62.56;54186.03;5090019;28;20052;-70
2023/05/29 08:20:50;;;;;;;23.45;5.47;;;;;;;-144.73;62.58;54210.66;5091860;28;20036;-70
2023/05/29 08:23:15;;;;;;;34.53;6.28;;;;;;;-144.73;63.79;54231.19;5093307;28;20031;-70
2023/05/29 08:25:42;;;;;;;26.70;6.28;;;;;;;-144.73;61.63;54214.78;5100379;28;20028;-70
2023/05/29 08:28:07;;;;;;;29.58;5.45;;;;;;;-144.73;61.80;54214.78;5095348;28;20608;-71
2023/05/29 08:30:33;;;;;;;32.80;5.28;;;;;;;-144.73;60.48;54181.94;5096977;28;20036;-70
2023/05/29 08:32:58;;;;;;;33.53;5.60;;;;;;;-144.73;62.23;54196.28;5101345;28;20026;-70
2023/05/29 08:35:23;;;;;;;36.22;6.00;;;;;;;-144.73;64.81;54231.19;5095608;28;20032;-70
2023/05/29 08:37:49;;;;;;;33.95;5.78;;;;;;;-144.73;62.73;54218.88;5099767;28;20019;-70
2023/05/29 08:40:14;;;;;;;29.73;6.15;;;;;;;-144.73;59.88;54210.66;5095482;28;20038;-71
2023/05/29 08:42:46;;;;;;;35.72;5.28;;;;;;;-144.73;59.20;54206.56;5099617;28;20039;-72
2023/05/29 08:45:13;;;;;;;24.33;5.43;;;;;;;-144.73;59.21;54173.72;5098865;28;20028;-71
2023/05/29 08:47:41;;;;;;;33.45;6.65;;;;;;;-144.73;57.58;54169.63;5092911;28;20020;-71
2023/05/29 08:50:07;;;;;;;26.40;4.93;;;;;;;-144.73;56.24;54214.78;5104505;28;20111;-71
2023/05/29 08:52:37;;;;;;;34.60;6.38;;;;;;;-144.73;58.74;54202.44;5099302;28;20027;-70
2023/05/29 08:55:03;;;;;;;32.85;5.50;;;;;;;-144.73;58.43;54177.81;5104902;28;20034;-70
2023/05/29 08:57:29;;;;;;;30.08;6.22;;;;;;;-144.73;57.11;54186.03;5094255;28;20169;-71
2023/05/29 08:59:56;;;;;;;27.00;5.22;;;;;;;-144.73;56.87;54214.78;5100842;28;20143;-71
2023/05/29 09:02:22;;;;;;;36.15;6.40;;;;;;;-144.73;59.13;54157.31;5100295;28;20024;-71
2023/05/29 09:04:53;;;;;;;36.95;4.88;;;;;;;-144.73;58.42;54231.19;5091438;28;20024;-71
2023/05/29 09:07:19;;;;;;;23.88;4.78;;;;;;;-144.73;58.17;54239.41;5101303;28;20049;-70
2023/05/29 09:09:46;;;;;;;28.98;5.40;;;;;;;-144.73;59.01;54181.94;5099186;28;20441;-70
2023/05/29 09:12:14;;;;;;;29.85;5.82;;;;;;;-144.73;56.91;54186.03;5101039;28;20077;-72
2023/05/29 09:14:44;;;;;;;29.02;6.15;;;;;;;-144.73;58.41;54214.78;5103811;28;20035;-72
2023/05/29 09:17:11;;;;;;;33.92;5.75;;;;;;;-144.73;55.12;54190.13;5101410;28;20556;-71
2023/05/29 09:19:40;;;;;;;25.65;4.80;;;;;;;-144.73;55.29;54192.19;5103383;28;20042;-71
2023/05/29 09:22:16;;;;;;;30.02;5.28;;;;;;;-144.73;52.40;54210.66;5103422;28;20029;-72
2023/05/29 09:24:45;;;;;;;25.02;4.75;;;;;;;-144.73;54.11;54218.88;5093688;28;20055;-71
2023/05/29 09:27:11;;;;;;;27.70;5.97;;;;;;;-144.73;55.03;54169.63;5101082;28;20059;-72
2023/05/29 09:29:43;;;;;;;28.52;5.78;;;;;;;-144.73;54.41;54192.19;5091606;28;20101;-72
2023/05/29 09:32:11;;;;;;;26.30;5.13;;;;;;;-144.73;52.63;54165.50;5101304;28;20048;-72
2023/05/29 09:34:36;;;;;;;24.38;5.03;;;;;;;-144.73;52.92;54206.56;5096574;28;20022;-72
2023/05/29 09:37:07;;;;;;;22.15;5.00;;;;;;;-144.73;51.90;54149.09;5093031;28;20028;-72
2023/05/29 09:39:34;;;;;;;29.67;5.57;;;;;;;-144.73;51.70;54198.34;5092675;28;20526;-72
2023/05/29 09:41:59;;;;;;;29.80;5.45;;;;;;;-144.73;50.02;54173.72;5100236;28;20035;-72
2023/05/29 09:44:28;;;;;;;23.48;4.82;;;;;;;-144.73;51.22;54202.44;5099217;28;20061;-72
2023/05/29 09:46:58;;;;;;;22.38;5.82;;;;;;;-144.73;51.69;54181.94;5102452;28;20032;-71
2023/05/29 09:49:23;;;;;;;26.85;5.35;;;;;;;-144.73;49.22;54194.25;5099562;28;20102;-71
2023/05/29 09:51:53;;;;;;;26.23;5.10;;;;;;;-144.73;48.74;54181.94;5084085;28;20132;-70
2023/05/29 09:54:19;;;;;;;29.48;4.88;;;;;;;-144.73;48.83;54210.66;5088214;28;20028;-71
2023/05/29 09:56:46;;;;;;;23.25;4.93;;;;;;;-144.73;48.56;54177.81;5082545;28;20044;-71
2023/05/29 09:59:17;;;;;;;23.48;5.20;;;;;;;-144.73;49.61;54173.72;5089566;28;20012;-71
2023/05/29 10:01:44;;;;;;;25.15;5.75;;;;;;;-144.73;47.64;54190.13;5090874;28;20043;-71
2023/05/29 10:04:13;;;;;;;28.60;5.28;;;;;;;-144.73;47.04;54188.09;5097646;28;20031;-71
2023/05/29 10:06:44;;;;;;;22.52;4.65;;;;;;;-144.73;46.18;54210.66;5098935;28;20089;-71
2023/05/29 10:09:11;;;;;;;28.90;4.75;;;;;;;-144.73;44.70;54198.34;5101268;28;20030;-71
2023/05/29 10:11:41;;;;;;;21.00;4.13;;;;;;;-144.73;46.23;54196.28;5095598;28;20032;-71
2023/05/29 10:14:11;;;;;;;27.38;4.82;;;;;;;-144.73;44.46;54177.81;5096271;28;20078;-72
2023/05/29 10:16:41;;;;;;;23.60;5.18;;;;;;;-144.73;43.20;54157.31;5094713;28;20059;-72
2023/05/29 10:19:12;;;;;;;19.10;3.70;;;;;;;-144.73;42.32;54194.25;5103614;28;20023;-71
2023/05/29 10:21:41;;;;;;;22.45;4.55;;;;;;;-144.73;41.55;54149.09;5103809;28;20088;-72
2023/05/29 10:24:08;;;;;;;24.23;5.03;;;;;;;-144.73;41.67;54186.03;5092423;28;20016;-71
2023/05/29 10:26:39;;;;;;;15.55;3.83;;;;;;;-144.73;42.66;54153.19;5090642;28;20040;-72
2023/05/29 10:29:15;;;;;;;23.48;5.40;;;;;;;-144.73;41.75;54145.00;5088107;28;20024;-72
2023/05/29 10:32:07;;;;;;;16.63;4.15;;;;;;;-144.73;41.33;54145.00;5095473;28;20262;-72
2023/05/29 10:35:00;;;;;;;24.45;5.18;;;;;;;-144.73;41.69;54181.94;5088919;28;20031;-71
2023/05/29 10:37:40;;;;;;;22.98;4.50;;;;;;;-144.73;41.45;54194.25;5064955;28;20040;-71
2023/05/29 10:40:12;;;;;;;22.58;4.53;;;;;;;-144.73;41.04;54149.09;5061132;28;20135;-71
2023/05/29 10:42:52;;;;;;;21.25;5.15;;;;;;;-144.73;39.77;54145.00;5067657;28;20031;-71
2023/05/29 10:45:37;;;;;;;20.85;4.25;;;;;;;-144.73;40.38;54136.78;5074629;28;20025;-71
2023/05/29 10:48:12;;;;;;;16.33;4.63;;;;;;;-144.73;39.43;54132.69;5063665;28;20032;-71
2023/05/29 10:50:41;;;;;;;19.08;4.40;;;;;;;-144.73;40.64;54161.41;5067826;28;20060;-71
2023/05/29 10:53:10;;;;;;;21.60;4.53;;;;;;;-144.73;42.01;54157.31;5086705;28;20032;-71
2023/05/29 10:55:39;;;;;;;23.25;4.65;;;;;;;-144.73;39.56;54157.31;5067462;28;20027;-71
2023/05/29 10:58:22;;;;;;;22.10;4.70;;;;;;;-144.73;40.52;54194.25;5100798;28;20039;-71
2023/05/29 11:00:54;;;;;;;16.42;3.55;;;;;;;-144.73;37.80;54186.03;5084194;28;20040;-71
2023/05/29 11:03:45;;;;;;;14.80;3.30;;;;;;;-144.73;36.27;54169.63;5090722;28;20035;-71
2023/05/29 11:06:23;;;;;;;16.63;3.95;;;;;;;-144.73;37.24;54169.63;5100337;28;20032;-71
2023/05/29 11:08:56;;;;;;;17.25;3.40;;;;;;;-144.73;37.27;54165.50;5097725;28;20016;-71